sensor_id;sensor_type;location;lat;lon;timestamp;P1;durP1;ratioP1;P2;durP2;ratioP2
20314;SDS011;10315;50.958;13.080;2023-07-24T00:07:48;3.70;;;2.67;;
20314;SDS011;10315;50.958;13.080;2023-07-24T00:17:51;3.15;;;2.33;;
20314;SDS011;10315;50.958;13.080;2023-07-24T00:27:52;3.80;;;2.63;;
20314;SDS011;10315;50.958;13.080;2023-07-24T00:37:58;3.90;;;2.42;;
20314;SDS011;10315;50.958;13.080;2023-07-24T00:48:00;4.45;;;2.92;;
20314;SDS011;10315;50.958;13.080;2023-07-24T00:58:03;3.10;;;2.47;;
20314;SDS011;10315;50.958;13.080;2023-07-24T01:08:05;4.25;;;2.85;;
20314;SDS011;10315;50.958;13.080;2023-07-24T01:18:09;5.60;;;2.90;;
20314;SDS011;10315;50.958;13.080;2023-07-24T01:28:12;6.65;;;2.50;;
20314;SDS011;10315;50.958;13.080;2023-07-24T01:38:14;4.28;;;2.58;;
20314;SDS011;10315;50.958;13.080;2023-07-24T01:48:18;4.47;;;2.80;;
20314;SDS011;10315;50.958;13.080;2023-07-24T01:58:20;3.40;;;2.60;;
20314;SDS011;10315;50.958;13.080;2023-07-24T02:08:23;4.00;;;2.70;;
20314;SDS011;10315;50.958;13.080;2023-07-24T02:18:24;5.30;;;3.38;;
20314;SDS011;10315;50.958;13.080;2023-07-24T02:28:27;3.95;;;2.85;;
20314;SDS011;10315;50.958;13.080;2023-07-24T02:38:31;3.63;;;2.60;;
20314;SDS011;10315;50.958;13.080;2023-07-24T02:48:34;6.10;;;3.00;;
20314;SDS011;10315;50.958;13.080;2023-07-24T02:58:36;4.13;;;3.15;;
20314;SDS011;10315;50.958;13.080;2023-07-24T03:08:39;6.75;;;3.17;;
20314;SDS011;10315;50.958;13.080;2023-07-24T03:18:40;7.40;;;2.65;;
20314;SDS011;10315;50.958;13.080;2023-07-24T03:28:43;4.35;;;2.92;;
20314;SDS011;10315;50.958;13.080;2023-07-24T03:38:45;3.85;;;3.08;;
20314;SDS011;10315;50.958;13.080;2023-07-24T03:48:48;3.92;;;2.80;;
20314;SDS011;10315;50.958;13.080;2023-07-24T03:58:50;4.95;;;3.15;;
20314;SDS011;10315;50.958;13.080;2023-07-24T04:08:55;6.63;;;2.60;;
20314;SDS011;10315;50.958;13.080;2023-07-24T04:18:57;4.63;;;3.00;;
20314;SDS011;10315;50.958;13.080;2023-07-24T04:29:00;3.83;;;2.83;;
20314;SDS011;10315;50.958;13.080;2023-07-24T04:39:02;6.15;;;3.10;;
20314;SDS011;10315;50.958;13.080;2023-07-24T04:49:05;6.40;;;3.15;;
20314;SDS011;10315;50.958;13.080;2023-07-24T04:59:07;4.13;;;2.70;;
20314;SDS011;10315;50.958;13.080;2023-07-24T05:09:10;5.43;;;2.92;;
20314;SDS011;10315;50.958;13.080;2023-07-24T05:19:11;5.03;;;3.38;;
20314;SDS011;10315;50.958;13.080;2023-07-24T05:29:14;7.10;;;3.85;;
20314;SDS011;10315;50.958;13.080;2023-07-24T05:39:16;5.50;;;3.50;;
20314;SDS011;10315;50.958;13.080;2023-07-24T05:49:19;8.00;;;3.28;;
20314;SDS011;10315;50.958;13.080;2023-07-24T05:59:20;6.03;;;3.67;;
20314;SDS011;10315;50.958;13.080;2023-07-24T06:09:23;4.82;;;3.33;;
20314;SDS011;10315;50.958;13.080;2023-07-24T06:19:25;5.53;;;3.45;;
20314;SDS011;10315;50.958;13.080;2023-07-24T06:29:28;5.68;;;3.67;;
20314;SDS011;10315;50.958;13.080;2023-07-24T06:39:30;6.35;;;3.42;;
20314;SDS011;10315;50.958;13.080;2023-07-24T06:49:34;5.13;;;3.45;;
20314;SDS011;10315;50.958;13.080;2023-07-24T06:59:36;5.22;;;3.47;;
20314;SDS011;10315;50.958;13.080;2023-07-24T07:09:39;6.78;;;4.03;;
20314;SDS011;10315;50.958;13.080;2023-07-24T07:19:41;5.20;;;3.60;;
20314;SDS011;10315;50.958;13.080;2023-07-24T07:29:44;53.88;;;7.05;;
20314;SDS011;10315;50.958;13.080;2023-07-24T07:39:45;5.78;;;3.35;;
20314;SDS011;10315;50.958;13.080;2023-07-24T07:49:51;6.88;;;4.07;;
20314;SDS011;10315;50.958;13.080;2023-07-24T07:59:52;5.32;;;3.92;;
20314;SDS011;10315;50.958;13.080;2023-07-24T08:09:55;7.53;;;4.60;;
20314;SDS011;10315;50.958;13.080;2023-07-24T08:19:57;7.05;;;5.05;;
20314;SDS011;10315;50.958;13.080;2023-07-24T08:30:00;8.18;;;4.75;;
20314;SDS011;10315;50.958;13.080;2023-07-24T08:40:02;11.40;;;6.30;;
20314;SDS011;10315;50.958;13.080;2023-07-24T08:50:06;8.52;;;5.10;;
20314;SDS011;10315;50.958;13.080;2023-07-24T09:00:11;8.88;;;5.00;;
20314;SDS011;10315;50.958;13.080;2023-07-24T09:10:15;6.75;;;4.20;;
20314;SDS011;10315;50.958;13.080;2023-07-24T09:20:17;10.75;;;4.38;;
20314;SDS011;10315;50.958;13.080;2023-07-24T09:30:21;21.02;;;4.32;;
20314;SDS011;10315;50.958;13.080;2023-07-24T09:40:23;5.88;;;3.80;;
20314;SDS011;10315;50.958;13.080;2023-07-24T09:50:26;4.32;;;3.45;;
20314;SDS011;10315;50.958;13.080;2023-07-24T10:00:28;5.25;;;3.60;;
20314;SDS011;10315;50.958;13.080;2023-07-24T10:10:33;4.18;;;3.47;;
20314;SDS011;10315;50.958;13.080;2023-07-24T10:20:36;6.35;;;4.10;;
20314;SDS011;10315;50.958;13.080;2023-07-24T10:30:41;9.27;;;4.32;;
20314;SDS011;10315;50.958;13.080;2023-07-24T10:40:45;6.57;;;4.30;;
20314;SDS011;10315;50.958;13.080;2023-07-24T10:50:50;11.60;;;4.53;;
20314;SDS011;10315;50.958;13.080;2023-07-24T11:00:52;12.25;;;5.72;;
20314;SDS011;10315;50.958;13.080;2023-07-24T11:10:57;9.70;;;6.10;;
20314;SDS011;10315;50.958;13.080;2023-07-24T11:21:01;10.05;;;6.10;;
20314;SDS011;10315;50.958;13.080;2023-07-24T11:31:04;8.25;;;5.63;;
20314;SDS011;10315;50.958;13.080;2023-07-24T11:41:05;10.13;;;5.85;;
20314;SDS011;10315;50.958;13.080;2023-07-24T11:51:12;7.38;;;5.15;;
20314;SDS011;10315;50.958;13.080;2023-07-24T12:01:14;10.48;;;5.85;;
20314;SDS011;10315;50.958;13.080;2023-07-24T12:11:17;7.72;;;4.57;;
20314;SDS011;10315;50.958;13.080;2023-07-24T12:21:19;10.73;;;5.70;;
20314;SDS011;10315;50.958;13.080;2023-07-24T12:31:22;9.20;;;4.72;;
20314;SDS011;10315;50.958;13.080;2023-07-24T12:41:24;9.38;;;5.85;;
20314;SDS011;10315;50.958;13.080;2023-07-24T12:51:27;9.88;;;5.07;;
20314;SDS011;10315;50.958;13.080;2023-07-24T13:01:28;8.57;;;4.90;;
20314;SDS011;10315;50.958;13.080;2023-07-24T13:11:32;7.63;;;4.28;;
20314;SDS011;10315;50.958;13.080;2023-07-24T13:21:33;6.50;;;3.83;;
20314;SDS011;10315;50.958;13.080;2023-07-24T13:31:36;5.82;;;3.08;;
20314;SDS011;10315;50.958;13.080;2023-07-24T13:41:40;12.18;;;3.45;;
20314;SDS011;10315;50.958;13.080;2023-07-24T13:51:43;5.53;;;3.50;;
20314;SDS011;10315;50.958;13.080;2023-07-24T14:01:45;8.15;;;3.95;;
20314;SDS011;10315;50.958;13.080;2023-07-24T14:11:48;5.78;;;3.80;;
20314;SDS011;10315;50.958;13.080;2023-07-24T14:21:50;7.70;;;4.40;;
20314;SDS011;10315;50.958;13.080;2023-07-24T14:31:53;6.90;;;4.47;;
20314;SDS011;10315;50.958;13.080;2023-07-24T14:41:54;10.05;;;5.05;;
20314;SDS011;10315;50.958;13.080;2023-07-24T14:51:57;10.65;;;5.13;;
20314;SDS011;10315;50.958;13.080;2023-07-24T15:01:59;10.93;;;6.07;;
20314;SDS011;10315;50.958;13.080;2023-07-24T15:12:02;10.63;;;5.53;;
20314;SDS011;10315;50.958;13.080;2023-07-24T15:22:05;9.18;;;5.53;;
20314;SDS011;10315;50.958;13.080;2023-07-24T15:32:13;10.30;;;5.63;;
20314;SDS011;10315;50.958;13.080;2023-07-24T15:42:15;11.95;;;6.20;;
20314;SDS011;10315;50.958;13.080;2023-07-24T15:52:18;9.40;;;5.72;;
20314;SDS011;10315;50.958;13.080;2023-07-24T16:02:20;9.77;;;5.53;;
20314;SDS011;10315;50.958;13.080;2023-07-24T16:12:23;10.45;;;6.00;;
20314;SDS011;10315;50.958;13.080;2023-07-24T16:22:24;9.70;;;5.63;;
20314;SDS011;10315;50.958;13.080;2023-07-24T16:32:28;11.60;;;5.50;;
20314;SDS011;10315;50.958;13.080;2023-07-24T16:42:30;7.80;;;4.72;;
20314;SDS011;10315;50.958;13.080;2023-07-24T16:52:33;14.15;;;5.95;;
20314;SDS011;10315;50.958;13.080;2023-07-24T17:02:35;11.82;;;5.97;;
20314;SDS011;10315;50.958;13.080;2023-07-24T17:12:39;9.07;;;5.43;;
20314;SDS011;10315;50.958;13.080;2023-07-24T17:22:40;11.13;;;5.97;;
20314;SDS011;10315;50.958;13.080;2023-07-24T17:32:43;14.88;;;5.80;;
20314;SDS011;10315;50.958;13.080;2023-07-24T17:42:48;9.27;;;5.30;;
20314;SDS011;10315;50.958;13.080;2023-07-24T17:52:52;12.23;;;6.20;;
20314;SDS011;10315;50.958;13.080;2023-07-24T18:02:54;9.93;;;5.90;;
20314;SDS011;10315;50.958;13.080;2023-07-24T18:12:57;10.90;;;5.38;;
20314;SDS011;10315;50.958;13.080;2023-07-24T18:22:59;10.48;;;5.93;;
20314;SDS011;10315;50.958;13.080;2023-07-24T18:33:02;21.70;;;4.80;;
20314;SDS011;10315;50.958;13.080;2023-07-24T18:43:04;16.30;;;2.65;;
20314;SDS011;10315;50.958;13.080;2023-07-24T18:53:07;10.80;;;2.20;;
20314;SDS011;10315;50.958;13.080;2023-07-24T19:03:11;4.75;;;2.10;;
20314;SDS011;10315;50.958;13.080;2023-07-24T19:13:14;5.30;;;2.40;;
20314;SDS011;10315;50.958;13.080;2023-07-24T19:23:16;7.50;;;2.40;;
20314;SDS011;10315;50.958;13.080;2023-07-24T19:33:20;6.63;;;2.53;;
20314;SDS011;10315;50.958;13.080;2023-07-24T19:43:22;8.05;;;2.80;;
20314;SDS011;10315;50.958;13.080;2023-07-24T19:53:25;6.53;;;2.35;;
20314;SDS011;10315;50.958;13.080;2023-07-24T20:03:27;6.82;;;2.80;;
20314;SDS011;10315;50.958;13.080;2023-07-24T20:13:30;5.30;;;2.50;;
20314;SDS011;10315;50.958;13.080;2023-07-24T20:23:32;7.65;;;2.80;;
20314;SDS011;10315;50.958;13.080;2023-07-24T20:33:35;7.43;;;2.60;;
20314;SDS011;10315;50.958;13.080;2023-07-24T20:43:37;6.43;;;3.03;;
20314;SDS011;10315;50.958;13.080;2023-07-24T20:53:42;5.47;;;3.22;;
20314;SDS011;10315;50.958;13.080;2023-07-24T21:03:44;7.57;;;3.45;;
20314;SDS011;10315;50.958;13.080;2023-07-24T21:13:47;6.90;;;3.38;;
20314;SDS011;10315;50.958;13.080;2023-07-24T21:23:49;7.45;;;3.47;;
20314;SDS011;10315;50.958;13.080;2023-07-24T21:33:52;6.07;;;3.33;;
20314;SDS011;10315;50.958;13.080;2023-07-24T21:43:54;6.93;;;3.88;;
20314;SDS011;10315;50.958;13.080;2023-07-24T21:53:57;5.28;;;3.58;;
20314;SDS011;10315;50.958;13.080;2023-07-24T22:03:58;7.38;;;3.50;;
20314;SDS011;10315;50.958;13.080;2023-07-24T22:14:01;6.53;;;4.03;;
20314;SDS011;10315;50.958;13.080;2023-07-24T22:24:03;7.15;;;4.10;;
20314;SDS011;10315;50.958;13.080;2023-07-24T22:34:06;8.75;;;4.45;;
20314;SDS011;10315;50.958;13.080;2023-07-24T22:44:10;10.27;;;4.88;;
20314;SDS011;10315;50.958;13.080;2023-07-24T22:54:13;8.52;;;4.88;;
20314;SDS011;10315;50.958;13.080;2023-07-24T23:04:15;7.03;;;4.43;;
20314;SDS011;10315;50.958;13.080;2023-07-24T23:14:18;8.38;;;4.20;;
20314;SDS011;10315;50.958;13.080;2023-07-24T23:24:20;8.68;;;4.10;;
20314;SDS011;10315;50.958;13.080;2023-07-24T23:34:23;8.70;;;4.90;;
20314;SDS011;10315;50.958;13.080;2023-07-24T23:44:24;8.90;;;4.45;;
20314;SDS011;10315;50.958;13.080;2023-07-24T23:54:27;7.65;;;3.75;;
